Аэропорт: Псков. Псков

ICAO: ULOO

METAR:
2018/11/19 10:00
ULOO 191000Z 03002MPS 010V080 P5000 -SN SCT006 OVC023 01/00 Q1037 RESN R19/290055 NOSIG RMK OBST OBSC QFE773
METAR:
2016/02/06 08:39
TAF 
      AMD TAF 
      AMD ULOO 061936Z 0608/0703 CNL